Time;durP1;ratioP1;P1;durP2;ratioP2;P2;SDS_P1;SDS_P2;PMS_P1;PMS_P2;Temp;Humidity;BMP_temperature;BMP_pressure;BME280_temperature;BME280_humidity;BME280_pressure;Samples;Min_cycle;Max_cycle;Signal;HPM_P1;HPM_P2
2023/06/11 00:00:31;;;;;;;8.63;6.43;;;;;;;23.27;73.43;99765.81;5091787;28;20106;-69
2023/06/11 00:02:59;;;;;;;8.63;6.10;;;;;;;23.25;73.41;99771.44;5092078;28;20401;-70
2023/06/11 00:05:29;;;;;;;7.50;6.28;;;;;;;23.25;73.50;99768.69;5091819;28;20048;-70
2023/06/11 00:08:00;;;;;;;8.40;6.40;;;;;;;23.25;73.54;99771.44;5091952;28;20358;-69
2023/06/11 00:10:29;;;;;;;8.45;6.07;;;;;;;23.24;73.50;99774.34;5091765;28;20044;-70
2023/06/11 00:13:06;;;;;;;8.05;5.95;;;;;;;23.22;73.20;99777.25;5091787;28;20059;-70
2023/06/11 00:15:34;;;;;;;7.38;6.20;;;;;;;23.22;73.64;99774.53;5091698;28;20047;-70
2023/06/11 00:18:02;;;;;;;8.55;6.72;;;;;;;23.21;73.31;99774.72;5091642;28;20051;-70
2023/06/11 00:20:32;;;;;;;9.05;6.80;;;;;;;23.19;73.44;99771.34;5090726;28;20108;-70
2023/06/11 00:23:01;;;;;;;8.43;6.60;;;;;;;23.17;73.55;99779.69;5091512;28;20132;-72
2023/06/11 00:25:29;;;;;;;9.02;6.63;;;;;;;23.17;73.59;99776.97;5091718;28;20048;-70
2023/06/11 00:27:57;;;;;;;8.55;6.70;;;;;;;23.18;73.60;99780.53;5091417;28;20048;-70
2023/06/11 00:30:25;;;;;;;8.18;6.93;;;;;;;23.18;73.51;99778.66;5091548;28;20051;-70
2023/06/11 00:32:53;;;;;;;11.10;6.93;;;;;;;23.17;73.44;99782.41;5091330;28;20051;-69
2023/06/11 00:35:22;;;;;;;10.00;7.20;;;;;;;23.17;73.30;99779.69;5091483;28;20044;-70
2023/06/11 00:37:55;;;;;;;9.88;6.90;;;;;;;23.16;73.04;99779.84;5091516;28;20054;-70
2023/06/11 00:40:22;;;;;;;;;;;;;;;23.17;72.82;99785.13;5091761;28;20048;-70
2023/06/11 00:42:50;;;;;;;10.68;7.20;;;;;;;23.19;72.60;99780.34;5091341;28;20288;-70
2023/06/11 00:45:19;;;;;;;8.75;7.10;;;;;;;23.21;72.59;99782.88;5091136;28;20040;-70
2023/06/11 00:47:47;;;;;;;10.43;7.15;;;;;;;23.20;72.45;99779.31;5091445;28;20109;-70
2023/06/11 00:50:16;;;;;;;11.30;7.97;;;;;;;23.20;72.45;99783.91;5091361;28;20369;-70
2023/06/11 00:52:46;;;;;;;9.10;7.53;;;;;;;23.20;72.28;99779.31;5091336;28;20055;-70
2023/06/11 00:55:16;;;;;;;11.23;7.45;;;;;;;23.18;72.20;99775.94;5091185;28;20056;-70
2023/06/11 00:57:44;;;;;;;9.88;7.70;;;;;;;23.19;72.20;99782.22;5091178;28;20048;-70
2023/06/11 01:00:13;;;;;;;10.25;7.28;;;;;;;23.18;72.25;99781.38;5090984;28;20040;-70
2023/06/11 01:02:49;;;;;;;8.90;7.15;;;;;;;23.16;72.13;99783.41;5091260;28;20135;-70
2023/06/11 01:05:21;;;;;;;9.63;7.55;;;;;;;23.14;72.17;99775.44;5091323;28;20583;-70
2023/06/11 01:07:55;;;;;;;9.55;7.40;;;;;;;23.14;72.17;99774.59;5090982;28;20091;-70
2023/06/11 01:10:26;;;;;;;8.23;7.22;;;;;;;23.13;72.25;99772.91;5091061;28;20075;-70
2023/06/11 01:12:54;;;;;;;14.25;7.38;;;;;;;23.12;72.30;99782.09;5090946;28;20093;-70
2023/06/11 01:15:23;;;;;;;9.88;7.35;;;;;;;23.11;71.75;99772.25;5091158;28;20139;-70
2023/06/11 01:17:57;;;;;;;10.07;7.78;;;;;;;23.10;72.13;99786.91;5091036;28;20044;-70
2023/06/11 01:20:34;;;;;;;8.52;7.55;;;;;;;23.08;72.05;99778.09;5090927;28;20054;-70
2023/06/11 01:23:17;;;;;;;8.65;7.35;;;;;;;23.05;72.03;99773.00;5090879;28;20080;-70
2023/06/11 01:25:57;;;;;;;10.73;7.63;;;;;;;23.04;72.13;99780.31;5091138;28;20124;-70
2023/06/11 01:28:31;;;;;;;8.45;7.60;;;;;;;23.04;72.18;99776.75;5091039;28;20048;-70
2023/06/11 01:31:06;;;;;;;8.60;7.40;;;;;;;23.04;72.06;99776.75;5090864;28;20077;-70
2023/06/11 01:33:35;;;;;;;9.52;7.70;;;;;;;23.03;71.97;99783.22;5094702;28;20048;-70
2023/06/11 01:36:05;;;;;;;10.98;7.60;;;;;;;23.02;71.92;99776.09;5094607;28;20048;-70
2023/06/11 01:38:41;;;;;;;8.30;7.10;;;;;;;23.02;71.93;99778.81;5094980;28;20127;-70
2023/06/11 01:41:11;;;;;;;13.15;7.05;;;;;;;23.00;71.62;99783.59;5094493;28;20401;-70
2023/06/11 01:43:41;;;;;;;8.63;7.50;;;;;;;23.00;71.87;99783.59;5094441;28;20048;-70
2023/06/11 01:46:09;;;;;;;9.23;7.50;;;;;;;23.00;71.76;99789.88;5094426;28;20538;-70
2023/06/11 01:48:37;;;;;;;8.95;7.43;;;;;;;23.00;71.81;99789.88;5094672;28;20047;-70
2023/06/11 01:51:06;;;;;;;8.98;7.07;;;;;;;22.99;71.96;99787.34;5094597;28;20093;-69
2023/06/11 01:53:35;;;;;;;9.02;7.57;;;;;;;22.99;71.71;99787.34;5094427;28;20052;-70
2023/06/11 01:56:03;;;;;;;9.88;7.30;;;;;;;22.98;71.74;99791.94;5094322;28;20104;-70
2023/06/11 01:58:32;;;;;;;9.68;7.28;;;;;;;22.99;71.57;99798.22;5093920;28;20105;-70
2023/06/11 02:01:02;;;;;;;8.75;7.22;;;;;;;22.99;71.80;99792.78;5094287;28;20044;-70
2023/06/11 02:03:30;;;;;;;11.27;7.78;;;;;;;22.99;71.60;99804.50;5094087;28;20488;-70
2023/06/11 02:05:59;;;;;;;10.75;7.90;;;;;;;22.98;71.69;99788.38;5094169;28;20101;-69
2023/06/11 02:08:27;;;;;;;9.88;7.68;;;;;;;22.97;71.48;99794.81;5093905;28;20048;-69
2023/06/11 02:10:55;;;;;;;10.57;7.68;;;;;;;22.96;71.37;99793.13;5093889;28;20566;-70
2023/06/11 02:13:25;;;;;;;9.23;7.07;;;;;;;22.94;71.28;99792.47;5093825;28;20048;-70
2023/06/11 02:15:53;;;;;;;9.15;7.50;;;;;;;22.94;71.20;99795.19;5093994;28;20044;-70
2023/06/11 02:18:23;;;;;;;9.55;7.30;;;;;;;22.94;71.34;99790.59;5094064;28;20047;-69
2023/06/11 02:20:51;;;;;;;9.82;7.53;;;;;;;22.95;71.24;99799.59;5093734;28;20048;-70
2023/06/11 02:23:19;;;;;;;9.60;7.32;;;;;;;22.93;71.12;99788.06;5093570;28;20047;-70
2023/06/11 02:25:47;;;;;;;9.60;7.45;;;;;;;22.93;71.05;99794.34;5093522;28;20044;-70
2023/06/11 02:28:16;;;;;;;9.00;7.65;;;;;;;22.92;71.04;99797.25;5093855;28;20040;-70
2023/06/11 02:30:44;;;;;;;8.88;7.13;;;;;;;22.92;71.02;99797.25;5093682;28;20048;-70
2023/06/11 02:33:12;;;;;;;10.55;7.05;;;;;;;22.89;70.65;99803.06;5093541;28;20044;-70
2023/06/11 02:35:42;;;;;;;9.35;7.10;;;;;;;22.87;70.40;99796.94;5093509;28;20458;-70
2023/06/11 02:38:10;;;;;;;8.60;6.88;;;;;;;22.83;70.59;99802.72;5093300;28;20048;-70
2023/06/11 02:40:38;;;;;;;10.68;7.45;;;;;;;22.80;70.39;99805.81;5093702;28;20402;-70
2023/06/11 02:43:06;;;;;;;9.07;6.72;;;;;;;22.80;70.55;99803.09;5092866;28;20067;-70
2023/06/11 02:45:35;;;;;;;8.10;6.82;;;;;;;22.80;70.47;99808.53;5093425;28;20105;-69
2023/06/11 02:48:04;;;;;;;11.75;6.97;;;;;;;22.82;70.66;99795.59;5093400;28;20094;-69
2023/06/11 02:50:32;;;;;;;12.18;7.25;;;;;;;22.81;70.67;99796.63;5093198;28;20090;-69
2023/06/11 02:53:01;;;;;;;8.75;6.90;;;;;;;22.82;70.63;99798.31;5093094;28;20051;-69
2023/06/11 02:55:29;;;;;;;9.77;6.88;;;;;;;22.82;70.65;99798.31;5092980;28;20512;-69
2023/06/11 02:57:58;;;;;;;11.23;7.22;;;;;;;22.81;70.48;99795.78;5093242;28;20048;-70
2023/06/11 03:00:26;;;;;;;8.68;6.97;;;;;;;22.80;70.31;99796.81;5093032;28;20063;-71
2023/06/11 03:02:54;;;;;;;10.63;7.38;;;;;;;22.80;70.37;99794.94;5092885;28;20139;-71
2023/06/11 03:05:23;;;;;;;10.27;7.60;;;;;;;22.81;70.38;99804.78;5092860;28;20161;-71
2023/06/11 03:07:51;;;;;;;11.82;7.22;;;;;;;22.81;70.33;99804.78;5092657;28;20527;-71
2023/06/11 03:10:20;;;;;;;9.50;7.45;;;;;;;22.81;70.10;99802.06;5093000;28;20048;-70
2023/06/11 03:12:49;;;;;;;7.75;6.43;;;;;;;22.80;70.04;99805.81;5092809;28;20070;-70
2023/06/11 03:15:17;;;;;;;8.55;6.43;;;;;;;22.79;70.02;99798.69;5092756;28;20393;-70
2023/06/11 03:17:45;;;;;;;8.57;7.07;;;;;;;22.80;69.82;99803.09;5092586;28;20245;-70
2023/06/11 03:20:13;;;;;;;9.07;7.35;;;;;;;22.80;69.79;99802.25;5092576;28;20101;-71
2023/06/11 03:22:41;;;;;;;10.60;6.78;;;;;;;22.79;69.85;99804.13;5092777;28;20052;-71
2023/06/11 03:25:09;;;;;;;8.23;6.53;;;;;;;22.79;69.47;99803.28;5092633;28;20094;-71
2023/06/11 03:27:39;;;;;;;9.68;7.20;;;;;;;22.78;69.36;99810.59;5092647;28;20044;-71
2023/06/11 03:30:08;;;;;;;9.90;6.65;;;;;;;22.78;69.50;99812.47;5092539;28;20351;-71
2023/06/11 03:32:36;;;;;;;9.15;6.40;;;;;;;22.77;69.17;99814.31;5092361;28;20130;-71
2023/06/11 03:35:05;;;;;;;8.60;7.20;;;;;;;22.76;69.33;99815.34;5092572;28;20048;-70
2023/06/11 03:37:33;;;;;;;8.13;6.53;;;;;;;22.77;69.19;99816.19;5092584;28;20131;-70
2023/06/11 03:40:01;;;;;;;9.10;6.40;;;;;;;22.76;69.02;99819.94;5092466;28;20599;-70
2023/06/11 03:42:30;;;;;;;9.00;6.55;;;;;;;22.75;69.06;99819.09;5092287;28;20048;-71
2023/06/11 03:44:59;;;;;;;8.02;6.50;;;;;;;22.75;69.05;99818.25;5092121;28;20058;-71
2023/06/11 03:47:27;;;;;;;9.75;6.13;;;;;;;22.74;68.92;99811.13;5092371;28;20044;-71
2023/06/11 03:49:55;;;;;;;8.30;6.35;;;;;;;22.72;68.91;99814.03;5092325;28;20108;-71
2023/06/11 03:52:23;;;;;;;9.68;6.53;;;;;;;22.72;68.57;99816.75;5092173;28;20079;-71
2023/06/11 03:54:51;;;;;;;10.30;6.70;;;;;;;22.70;68.54;99816.09;5092158;28;20044;-71
2023/06/11 03:57:20;;;;;;;8.50;6.30;;;;;;;22.70;68.66;99821.53;5092061;28;20046;-70
2023/06/11 03:59:48;;;;;;;7.70;6.25;;;;;;;22.67;68.40;99821.84;5091815;28;20048;-71
2023/06/11 04:02:17;;;;;;;8.07;6.10;;;;;;;22.67;68.56;99819.16;5091983;28;20048;-70
2023/06/11 04:04:45;;;;;;;8.77;6.20;;;;;;;22.66;68.44;99817.44;5091916;28;20040;-71
2023/06/11 04:07:14;;;;;;;8.25;6.00;;;;;;;22.66;68.43;99817.44;5091931;28;20131;-71
2023/06/11 04:09:42;;;;;;;7.78;6.45;;;;;;;22.65;68.34;99818.50;5091549;28;20048;-70
2023/06/11 04:12:11;;;;;;;9.57;6.47;;;;;;;22.67;68.37;99824.59;5091613;28;20135;-71
2023/06/11 04:14:40;;;;;;;9.10;5.80;;;;;;;22.65;68.23;99828.50;5092036;28;20086;-71
2023/06/11 04:17:08;;;;;;;9.00;6.07;;;;;;;22.64;68.04;99816.78;5091925;28;20126;-71
2023/06/11 04:19:38;;;;;;;10.52;6.38;;;;;;;22.64;67.83;99827.66;5091754;28;20135;-71
2023/06/11 04:22:07;;;;;;;8.30;5.70;;;;;;;22.64;67.64;99819.50;5091681;28;20040;-71
2023/06/11 04:24:35;;;;;;;7.72;5.97;;;;;;;22.62;67.78;99813.41;5091561;28;20044;-71
2023/06/11 04:27:06;;;;;;;9.32;5.57;;;;;;;22.61;67.61;99814.44;5091430;28;20048;-70
2023/06/11 04:29:35;;;;;;;7.65;5.55;;;;;;;22.61;67.65;99822.59;5091478;28;20048;-70
2023/06/11 04:32:03;;;;;;;8.20;5.75;;;;;;;22.61;67.50;99824.47;5091754;28;20067;-71
2023/06/11 04:34:33;;;;;;;8.13;5.88;;;;;;;22.59;67.53;99830.09;5091557;28;20389;-70
2023/06/11 04:37:04;;;;;;;7.05;5.32;;;;;;;22.59;67.55;99824.66;5091451;28;20058;-70
2023/06/11 04:39:33;;;;;;;11.95;5.68;;;;;;;22.59;67.60;99821.09;5091246;28;20531;-70
2023/06/11 04:42:02;;;;;;;7.90;6.22;;;;;;;22.58;67.45;99825.66;5091568;28;20074;-70
2023/06/11 04:44:31;;;;;;;9.70;5.80;;;;;;;22.57;67.56;99827.53;5091162;28;20120;-70
2023/06/11 04:47:00;;;;;;;8.40;5.85;;;;;;;22.58;67.32;99833.81;5091555;28;20044;-70
2023/06/11 04:49:29;;;;;;;8.18;5.63;;;;;;;22.56;67.32;99825.00;5091308;28;20091;-70
2023/06/11 04:51:58;;;;;;;8.57;5.47;;;;;;;22.57;67.25;99829.41;5091267;28;20132;-70
2023/06/11 04:54:28;;;;;;;7.60;5.22;;;;;;;22.56;67.18;99830.44;5091180;28;20050;-70
2023/06/11 04:56:56;;;;;;;7.40;5.55;;;;;;;22.55;67.21;99834.19;5091337;28;20048;-70
2023/06/11 04:59:24;;;;;;;7.88;5.95;;;;;;;22.54;67.08;99838.78;5091347;28;20146;-70
2023/06/11 05:01:53;;;;;;;8.85;5.90;;;;;;;22.54;67.38;99833.34;5091161;28;20533;-70
2023/06/11 05:04:22;;;;;;;8.85;5.95;;;;;;;22.54;67.22;99835.22;5091108;28;20083;-70
2023/06/11 05:06:50;;;;;;;8.15;5.63;;;;;;;22.53;67.18;99831.66;5092256;28;20047;-70
2023/06/11 05:09:18;;;;;;;6.47;5.78;;;;;;;22.54;67.33;99838.78;5094943;28;20052;-71
2023/06/11 05:11:48;;;;;;;7.00;5.72;;;;;;;22.53;67.18;99831.66;5095119;28;20051;-71
2023/06/11 05:14:16;;;;;;;8.80;5.32;;;;;;;22.54;67.25;99837.94;5094500;28;20051;-72
2023/06/11 05:16:45;;;;;;;8.18;5.88;;;;;;;22.55;67.24;99842.34;5094513;28;20040;-72
2023/06/11 05:19:13;;;;;;;7.32;6.05;;;;;;;22.54;67.21;99843.38;5094260;28;20097;-73
2023/06/11 05:21:41;;;;;;;6.32;5.30;;;;;;;22.54;66.96;99837.94;5094757;28;20044;-74
2023/06/11 05:24:18;;;;;;;6.35;5.53;;;;;;;22.53;66.85;99838.97;5094183;28;20234;-74
2023/06/11 05:26:48;;;;;;;9.52;5.30;;;;;;;22.53;66.82;99830.81;5094413;28;20461;-73
2023/06/11 05:29:16;;;;;;;10.32;5.50;;;;;;;22.55;66.82;99836.91;5094074;28;20673;-75
2023/06/11 05:31:47;;;;;;;6.30;5.15;;;;;;;22.55;66.96;99840.47;5094760;28;20089;-74
2023/06/11 05:34:17;;;;;;;7.90;5.28;;;;;;;22.56;66.70;99841.31;5094422;28;20047;-74
2023/06/11 05:36:48;;;;;;;7.55;5.57;;;;;;;22.58;67.03;99839.25;5094318;28;20040;-71
2023/06/11 05:39:16;;;;;;;8.60;5.75;;;;;;;22.58;67.34;99839.25;5094167;28;20044;-70
2023/06/11 05:41:44;;;;;;;9.88;5.57;;;;;;;22.61;67.29;99840.78;5094429;28;20055;-72
2023/06/11 05:44:14;;;;;;;7.70;5.15;;;;;;;22.62;67.20;99846.03;5093654;28;20055;-71
2023/06/11 05:46:43;;;;;;;7.90;5.28;;;;;;;22.63;67.13;99839.56;5093993;28;20571;-70
2023/06/11 05:49:15;;;;;;;8.40;5.97;;;;;;;22.64;67.26;99843.97;5093992;28;20067;-74
2023/06/11 05:51:43;;;;;;;8.97;6.93;;;;;;;22.64;67.26;99843.97;5094738;28;20052;-70
2023/06/11 05:54:12;;;;;;;9.90;7.22;;;;;;;22.67;67.40;99853.63;5093921;28;20044;-75
2023/06/11 05:56:40;;;;;;;9.23;7.40;;;;;;;22.71;67.43;99849.56;5093953;28;20044;-73
2023/06/11 05:59:08;;;;;;;8.65;7.05;;;;;;;22.70;67.16;99854.16;5093578;28;20450;-74
2023/06/11 06:01:38;;;;;;;8.20;7.38;;;;;;;22.72;67.45;99846.66;5093776;28;20092;-72
2023/06/11 06:04:06;;;;;;;9.10;7.68;;;;;;;22.74;67.41;99855.47;5093905;28;20055;-74
2023/06/11 06:06:34;;;;;;;8.10;6.75;;;;;;;22.76;67.39;99858.84;5093448;28;20480;-73
2023/06/11 06:09:02;;;;;;;11.77;7.45;;;;;;;22.78;67.04;99859.53;5093154;28;20419;-73
2023/06/11 06:11:31;;;;;;;10.60;7.25;;;;;;;22.79;66.90;99861.22;5093253;28;20055;-74
2023/06/11 06:13:59;;;;;;;9.23;7.07;;;;;;;22.80;66.70;99862.06;5093748;28;20090;-74
2023/06/11 06:16:31;;;;;;;8.93;6.72;;;;;;;22.81;66.49;99855.59;5093569;28;20044;-77
2023/06/11 06:19:01;;;;;;;7.80;6.65;;;;;;;22.82;66.25;99869.00;5095468;28;20051;-76
2023/06/11 06:21:29;;;;;;;18.60;11.80;;;;;;;22.84;66.34;99869.69;5093556;28;20466;-76
2023/06/11 06:23:57;;;;;;;13.65;9.55;;;;;;;22.84;66.02;99861.53;5094019;28;20052;-77
2023/06/11 06:26:25;;;;;;;12.55;8.90;;;;;;;22.85;65.65;99863.22;5094233;28;20048;-77
2023/06/11 06:28:53;;;;;;;13.35;9.98;;;;;;;22.88;66.13;99872.94;5094499;28;20043;-76
2023/06/11 06:31:22;;;;;;;13.20;9.15;;;;;;;22.91;66.12;99864.41;5093998;28;20051;-74
2023/06/11 06:33:51;;;;;;;11.52;8.38;;;;;;;22.93;65.86;99875.94;5093984;28;20451;-74
2023/06/11 06:36:21;;;;;;;18.13;7.32;;;;;;;22.98;65.53;99872.69;5093613;28;20044;-75
2023/06/11 06:38:49;;;;;;;12.43;7.00;;;;;;;23.00;65.23;99874.19;5093615;28;20105;-77
2023/06/11 06:41:17;;;;;;;12.68;6.90;;;;;;;23.02;65.11;99880.28;5093799;28;20040;-72
2023/06/11 06:43:45;;;;;;;9.48;6.47;;;;;;;23.03;65.03;99881.13;5093363;28;20063;-72
2023/06/11 06:46:14;;;;;;;10.20;7.00;;;;;;;23.04;65.15;99870.06;5093474;28;20138;-74
2023/06/11 06:48:42;;;;;;;8.23;6.05;;;;;;;23.05;65.02;99874.47;5093422;28;20477;-77
2023/06/11 06:51:10;;;;;;;14.88;6.05;;;;;;;23.06;64.73;99876.16;5093396;28;20415;-77
2023/06/11 06:53:40;;;;;;;7.75;5.60;;;;;;;23.07;64.48;99882.47;5093630;28;20043;-78
2023/06/11 06:56:09;;;;;;;7.65;5.10;;;;;;;23.03;64.04;99873.81;5093198;28;20473;-73
2023/06/11 06:58:38;;;;;;;8.27;4.85;;;;;;;23.02;63.81;99884.88;5093138;28;20056;-74
2023/06/11 07:01:06;;;;;;;10.13;5.47;;;;;;;22.98;63.81;99873.53;5093185;28;20075;-72
2023/06/11 07:03:34;;;;;;;9.52;5.50;;;;;;;22.96;63.54;99882.88;5092887;28;20043;-72
2023/06/11 07:06:03;;;;;;;7.72;5.03;;;;;;;22.93;63.62;99885.97;5092923;28;20139;-74
2023/06/11 07:08:31;;;;;;;9.95;5.22;;;;;;;22.92;63.75;99884.28;5092961;28;20087;-74
2023/06/11 07:11:01;;;;;;;11.00;5.40;;;;;;;22.91;63.65;99885.31;5093094;28;20130;-77
2023/06/11 07:13:29;;;;;;;7.50;4.90;;;;;;;22.89;63.59;99893.66;5093228;28;20052;-76
2023/06/11 07:15:57;;;;;;;9.85;4.95;;;;;;;22.87;63.55;99886.66;5093178;28;20050;-77
2023/06/11 07:18:27;;;;;;;8.10;5.40;;;;;;;22.88;63.67;99885.69;5093127;28;20066;-69
2023/06/11 07:20:56;;;;;;;8.95;5.65;;;;;;;22.88;63.75;99888.41;5093087;28;20048;-77
2023/06/11 07:23:24;;;;;;;7.55;5.38;;;;;;;22.88;63.88;99882.97;5092706;28;20044;-71
2023/06/11 07:25:52;;;;;;;8.52;5.50;;;;;;;22.89;64.09;99890.09;5092792;28;20047;-79
2023/06/11 07:28:21;;;;;;;7.28;5.85;;;;;;;22.90;63.98;99880.91;5092550;28;20054;-78
2023/06/11 07:30:50;;;;;;;8.48;5.78;;;;;;;22.91;64.01;99888.88;5092376;28;20449;-80
2023/06/11 07:33:21;;;;;;;7.78;5.55;;;;;;;22.91;63.91;99890.75;5093040;28;20040;-78
2023/06/11 07:35:49;;;;;;;7.68;5.32;;;;;;;22.90;62.93;99889.91;5092924;28;20056;-76
2023/06/11 07:38:17;;;;;;;7.18;4.75;;;;;;;22.88;62.87;99880.25;5092641;28;20143;-74
2023/06/11 07:40:45;;;;;;;6.18;4.93;;;;;;;22.85;62.77;99890.41;5092505;28;20047;-74
2023/06/11 07:43:13;;;;;;;7.35;4.80;;;;;;;22.81;62.92;99886.34;5092246;28;20047;-75
2023/06/11 07:45:44;;;;;;;7.70;4.93;;;;;;;22.80;63.01;99883.81;5092058;28;20063;-75
2023/06/11 07:48:14;;;;;;;8.85;5.68;;;;;;;22.75;62.67;99891.66;5091874;28;20043;-73
2023/06/11 07:50:44;;;;;;;10.20;5.10;;;;;;;22.71;62.73;99884.91;5092346;28;20131;-75
2023/06/11 07:53:15;;;;;;;7.50;4.95;;;;;;;22.71;63.02;99882.19;5090929;28;20139;-73
2023/06/11 07:55:43;;;;;;;6.93;4.80;;;;;;;22.72;63.16;99892.88;5091975;28;20044;-71
2023/06/11 07:58:11;;;;;;;5.82;4.72;;;;;;;22.73;63.06;99886.41;5091993;28;20048;-74
2023/06/11 08:00:50;;;;;;;7.63;5.05;;;;;;;22.74;63.18;99893.53;5092297;28;20455;-71
2023/06/11 08:03:39;;;;;;;7.03;5.10;;;;;;;22.75;62.74;99895.22;5092187;28;20062;-73
2023/06/11 08:06:09;;;;;;;6.80;4.97;;;;;;;22.73;62.73;99891.00;5091407;28;20125;-68
2023/06/11 08:08:40;;;;;;;7.35;4.78;;;;;;;22.73;62.44;99897.28;5091406;28;20097;-74
2023/06/11 08:11:09;;;;;;;6.70;4.90;;;;;;;22.76;62.57;99899.63;5091255;28;20043;-70
2023/06/11 08:13:38;;;;;;;6.65;4.63;;;;;;;22.78;62.76;99902.19;5091435;28;20040;-69
2023/06/11 08:16:08;;;;;;;7.45;4.82;;;;;;;22.80;63.02;99900.97;5091193;28;20051;-72
2023/06/11 08:18:36;;;;;;;6.72;4.47;;;;;;;22.83;62.80;99905.19;5091320;28;20044;-68
2023/06/11 08:21:05;;;;;;;6.90;4.72;;;;;;;22.85;62.76;99898.59;5091216;28;20039;-66
2023/06/11 08:23:35;;;;;;;9.55;6.50;;;;;;;22.88;62.95;99897.41;5091100;28;20466;-72
2023/06/11 08:26:03;;;;;;;8.82;6.50;;;;;;;22.92;62.96;99898.72;5090882;28;20056;-74
2023/06/11 08:28:32;;;;;;;9.57;6.22;;;;;;;22.96;63.02;99901.91;5091454;28;20384;-73
2023/06/11 08:31:00;;;;;;;9.07;6.18;;;;;;;22.97;63.10;99907.19;5091101;28;20044;-73
2023/06/11 08:33:30;;;;;;;8.32;6.30;;;;;;;23.00;63.13;99906.81;5091384;28;20396;-73
2023/06/11 08:35:58;;;;;;;7.50;5.78;;;;;;;23.03;63.06;99902.88;5090955;28;20046;-74
2023/06/11 08:38:27;;;;;;;7.97;5.70;;;;;;;23.05;63.00;99904.38;5091019;28;20136;-73
2023/06/11 08:40:56;;;;;;;7.28;5.47;;;;;;;23.06;63.27;99905.22;5090822;28;20044;-74
2023/06/11 08:43:25;;;;;;;7.15;5.30;;;;;;;23.07;63.28;99907.81;5091479;28;20050;-77
2023/06/11 08:45:53;;;;;;;7.18;5.10;;;;;;;23.09;63.25;99910.34;5091415;28;20051;-70
2023/06/11 08:48:25;;;;;;;8.48;5.03;;;;;;;23.11;63.31;99905.56;5091223;28;20048;-67
2023/06/11 08:50:55;;;;;;;6.75;5.28;;;;;;;23.13;63.52;99920.66;5091345;28;20052;-67
2023/06/11 08:53:24;;;;;;;6.40;5.10;;;;;;;23.14;63.38;99922.34;5091089;28;20507;-67
2023/06/11 08:55:52;;;;;;;9.27;5.03;;;;;;;23.18;63.36;99916.56;5091314;28;20044;-68
2023/06/11 08:58:22;;;;;;;6.93;4.70;;;;;;;23.19;63.32;99908.22;5091300;28;20044;-71
2023/06/11 09:00:50;;;;;;;8.52;5.10;;;;;;;23.21;63.85;99911.59;5091193;28;20116;-67
2023/06/11 09:03:18;;;;;;;6.65;4.90;;;;;;;23.23;63.70;99909.53;5091029;28;20048;-68
2023/06/11 09:05:47;;;;;;;7.38;4.68;;;;;;;23.24;63.63;99913.94;5091149;28;20432;-68
2023/06/11 09:08:17;;;;;;;8.48;5.00;;;;;;;23.25;63.60;99910.19;5091133;28;20059;-69
2023/06/11 09:10:49;;;;;;;8.48;5.57;;;;;;;23.25;63.86;99907.47;5091061;28;20040;-66
2023/06/11 09:13:18;;;;;;;9.52;5.00;;;;;;;23.27;63.42;99916.31;5091058;28;20047;-67
2023/06/11 09:15:48;;;;;;;6.50;5.05;;;;;;;23.26;62.86;99908.31;5091174;28;20139;-69
2023/06/11 09:18:22;;;;;;;6.57;4.75;;;;;;;23.25;62.32;99912.06;5091155;28;20101;-68
2023/06/11 09:20:51;;;;;;;8.52;5.30;;;;;;;23.28;62.67;99912.56;5091122;28;20335;-65
2023/06/11 09:23:28;;;;;;;7.88;4.80;;;;;;;23.31;62.96;99906.75;5090980;28;20048;-65
2023/06/11 09:25:59;;;;;;;5.60;4.60;;;;;;;23.34;62.49;99910.97;5090535;28;20048;-67
2023/06/11 09:28:31;;;;;;;9.27;5.13;;;;;;;23.35;62.76;99908.06;5091156;28;20054;-69
2023/06/11 09:31:01;;;;;;;6.83;4.83;;;;;;;23.36;62.54;99914.38;5091033;28;20070;-68
2023/06/11 09:33:33;;;;;;;7.10;4.82;;;;;;;23.36;62.27;99915.22;5091012;28;20068;-68
2023/06/11 09:36:03;;;;;;;7.80;5.27;;;;;;;23.37;62.38;99902.47;5090765;28;20044;-66
2023/06/11 09:38:35;;;;;;;6.88;4.90;;;;;;;23.39;62.58;99920.28;5090704;28;20408;-67
2023/06/11 09:41:06;;;;;;;6.53;4.90;;;;;;;23.41;62.49;99918.22;5090957;28;20194;-68
2023/06/11 09:43:35;;;;;;;6.75;5.00;;;;;;;23.42;62.68;99919.91;5091006;28;20040;-66
2023/06/11 09:46:03;;;;;;;8.10;5.15;;;;;;;23.46;62.61;99905.97;5090782;28;20472;-68
2023/06/11 09:48:31;;;;;;;7.10;4.88;;;;;;;23.48;62.65;99914.78;5090673;28;20130;-65
2023/06/11 09:51:02;;;;;;;7.40;4.80;;;;;;;23.48;62.45;99912.91;5090734;28;20052;-66
2023/06/11 09:53:31;;;;;;;7.88;4.88;;;;;;;23.51;62.10;99917.97;5092493;28;20465;-67
2023/06/11 09:56:06;;;;;;;6.85;4.75;;;;;;;23.54;62.00;99923.03;5094397;28;20093;-65
2023/06/11 09:58:40;;;;;;;9.07;4.70;;;;;;;23.56;61.94;99918.28;5094225;28;20040;-66
2023/06/11 10:01:10;;;;;;;6.70;5.20;;;;;;;23.57;62.19;99916.41;5094531;28;20051;-66
2023/06/11 10:03:39;;;;;;;5.85;4.78;;;;;;;23.58;62.26;99913.50;5094146;28;20047;-66
2023/06/11 10:06:15;;;;;;;7.57;4.75;;;;;;;23.60;62.60;99907.91;5094254;28;20138;-66
2023/06/11 10:08:48;;;;;;;8.93;4.90;;;;;;;23.63;62.83;99912.97;5094058;28;20180;-65
2023/06/11 10:11:23;;;;;;;6.88;5.07;;;;;;;23.65;62.60;99916.38;5094070;28;20047;-67
2023/06/11 10:13:59;;;;;;;8.80;4.85;;;;;;;23.67;62.05;99917.88;5093695;28;20059;-66
2023/06/11 10:16:28;;;;;;;6.75;4.10;;;;;;;23.69;62.09;99917.69;5093665;28;20048;-67
2023/06/11 10:19:06;;;;;;;14.65;4.80;;;;;;;23.72;62.00;99913.72;5094013;28;20054;-67
2023/06/11 10:21:36;;;;;;;7.43;4.95;;;;;;;23.75;62.11;99907.94;5093961;28;20092;-66
2023/06/11 10:24:05;;;;;;;11.32;4.63;;;;;;;23.78;62.25;99910.28;5093834;28;20398;-67
2023/06/11 10:26:36;;;;;;;9.35;4.88;;;;;;;23.80;62.17;99917.22;5093448;28;20097;-63
2023/06/11 10:29:11;;;;;;;8.35;5.00;;;;;;;23.83;62.86;99910.53;5093765;28;20140;-67
2023/06/11 10:31:41;;;;;;;11.45;5.25;;;;;;;23.85;62.98;99906.63;5093557;28;20044;-67
2023/06/11 10:34:14;;;;;;;8.93;5.30;;;;;;;23.88;62.99;99906.25;5093778;28;20044;-67
2023/06/11 10:36:42;;;;;;;11.10;4.72;;;;;;;23.90;63.06;99900.59;5093717;28;20044;-67
2023/06/11 10:39:15;;;;;;;9.88;5.10;;;;;;;23.93;62.29;99903.81;5093316;28;20078;-67
2023/06/11 10:41:45;;;;;;;7.70;4.25;;;;;;;23.93;61.87;99905.66;5093681;28;20047;-66
2023/06/11 10:44:15;;;;;;;7.57;4.95;;;;;;;23.93;62.07;99906.53;5093517;28;20105;-66
2023/06/11 10:46:49;;;;;;;6.82;4.70;;;;;;;23.93;61.65;99906.53;5093637;28;20043;-65
2023/06/11 10:49:20;;;;;;;7.43;4.72;;;;;;;23.94;61.88;99896.50;5093413;28;20055;-66
2023/06/11 10:51:52;;;;;;;8.35;4.97;;;;;;;23.95;61.64;99906.34;5093290;28;20484;-67
2023/06/11 10:54:27;;;;;;;5.38;3.97;;;;;;;23.94;61.64;99908.25;5093331;28;20123;-67
2023/06/11 10:56:58;;;;;;;6.20;4.47;;;;;;;23.95;61.73;99909.91;5093323;28;20079;-64
2023/06/11 10:59:27;;;;;;;6.85;4.30;;;;;;;23.96;62.00;99906.16;5093123;28;20124;-67
2023/06/11 11:01:55;;;;;;;6.57;4.50;;;;;;;23.94;61.70;99902.78;5093020;28;20135;-68
2023/06/11 11:04:23;;;;;;;8.52;4.50;;;;;;;23.95;61.74;99900.91;5092236;28;20043;-67
2023/06/11 11:07:07;;;;;;;8.68;4.68;;;;;;;23.94;62.28;99902.78;5092675;28;20059;-67
2023/06/11 11:09:36;;;;;;;6.57;3.92;;;;;;;23.94;61.82;99900.06;5092859;28;20147;-66
2023/06/11 11:12:07;;;;;;;8.35;4.53;;;;;;;23.93;62.13;99898.38;5093010;28;20040;-67
2023/06/11 11:14:36;;;;;;;8.23;4.68;;;;;;;23.95;62.10;99904.47;5091592;28;20076;-67
2023/06/11 11:17:05;;;;;;;6.07;4.38;;;;;;;23.96;62.02;99899.88;5092782;28;20048;-67
2023/06/11 11:19:34;;;;;;;6.50;4.20;;;;;;;23.97;62.09;99898.84;5093023;28;20040;-65
2023/06/11 11:22:04;;;;;;;8.23;4.45;;;;;;;23.98;62.39;99897.81;5092801;28;20044;-63
2023/06/11 11:24:35;;;;;;;7.32;4.32;;;;;;;24.02;62.55;99893.66;5092667;28;20131;-66
2023/06/11 11:27:09;;;;;;;5.47;4.28;;;;;;;24.05;62.19;99903.34;5092371;28;20060;-65
2023/06/11 11:29:37;;;;;;;7.18;4.45;;;;;;;24.04;62.52;99899.78;5092424;28;20074;-67
2023/06/11 11:32:06;;;;;;;10.40;4.32;;;;;;;24.05;62.24;99896.03;5092543;28;20044;-67
2023/06/11 11:34:39;;;;;;;5.95;4.22;;;;;;;24.06;62.01;99900.44;5092536;28;20054;-67
2023/06/11 11:37:07;;;;;;;;;;;;;;;24.06;61.80;99892.25;5092823;28;20076;-68
2023/06/11 11:39:35;;;;;;;8.68;4.40;;;;;;;24.08;62.00;99892.91;5092326;28;20387;-67
2023/06/11 11:42:08;;;;;;;8.15;4.20;;;;;;;24.09;61.93;99888.31;5092524;28;20051;-66